Date,TemperatureHighF,TemperatureAvgF,TemperatureLowF,DewpointHighF,DewpointAvgF,DewpointLowF,HumidityHigh,HumidityAvg,HumidityLow,PressureMaxIn,PressureMinIn,WindSpeedMaxMPH,WindSpeedAvgMPH,GustSpeedMaxMPH,PrecipitationSumIn
2013-1-1,37.0,22.8,9.7,25.3,11.6,0.5,81,62,46,29.93,29.68,14,4,14,0.00
2013-1-2,27.0,10.7,-1.8,14.9,2.6,-11.4,80,69,58,30.18,29.87,14,3,14,0.00
2013-1-3,21.2,5.1,-7.6,3.6,-3.9,-12.8,83,67,34,30.18,29.95,6,2,6,0.00
2013-1-4,39.6,24.0,4.8,25.3,14.5,0.1,83,68,49,29.95,29.77,17,2,17,0.00
2013-1-5,38.5,27.8,15.4,23.9,16.6,8.5,83,64,39,30.24,29.81,23,3,23,0.00
2013-1-6,33.4,25.3,15.4,25.8,19.5,11.3,91,79,63,30.19,29.91,4,1,4,0.00
2013-1-7,32.9,22.6,6.6,29.7,15.2,4.2,93,74,44,30.36,29.95,10,2,11,0.00
2013-1-8,39.4,17.4,1.8,24.2,11.8,-1.1,91,80,51,30.37,30.22,4,1,4,0.00
2013-1-9,43.3,23.8,10.4,28.8,18.4,8.0,93,81,55,30.38,29.94,16,1,16,0.00
2013-1-10,45.5,34.7,23.5,29.7,21.1,16.1,85,59,37,30.57,30.02,18,4,18,0.04
2013-1-11,39.9,29.0,18.3,33.9,23.0,15.9,94,79,50,30.55,30.17,8,2,8,0.09
2013-1-12,40.6,34.2,32.5,36.4,32.9,31.3,98,95,88,30.20,30.11,6,1,6,0.00
2013-1-13,43.9,35.0,32.9,42.8,34.3,32.4,99,97,93,30.15,29.98,4,1,4,0.00
2013-1-14,53.4,37.0,32.0,48.7,32.0,20.9,99,83,53,30.92,29.86,13,2,13,0.22
2013-1-15,38.5,29.5,23.4,26.6,21.9,15.3,92,74,52,30.33,30.22,9,1,9,0.00
2013-1-16,30.9,28.6,24.1,27.6,25.4,21.6,96,88,78,30.23,29.79,2,0,2,0.00
2013-1-17,38.5,25.6,15.8,32.1,18.1,-2.6,97,75,43,30.12,29.80,9,0,9,0.00
2013-1-18,22.1,11.1,4.5,3.8,-1.4,-5.7,83,58,32,30.36,30.06,0,0,0,0.00
2013-1-19,42.1,26.5,9.0,26.9,17.8,3.9,85,71,41,30.27,29.81,12,1,12,0.04
2013-1-20,44.8,28.5,19.0,32.7,17.0,-4.6,96,66,18,29.94,29.51,17,3,17,0.02
2013-1-21,29.5,18.8,8.8,15.3,4.8,-3.3,86,56,35,30.04,29.77,11,2,11,0.01
2013-1-22,24.1,13.0,2.5,14.9,4.8,-5.0,89,70,41,30.04,29.75,13,2,13,0.00
2013-1-23,12.6,2.0,-6.0,-4.8,-10.2,-19.9,71,57,32,30.11,30.02,17,2,17,0.00
2013-1-24,16.5,2.3,-9.9,-5.0,-11.3,-15.8,79,54,35,30.25,30.08,18,4,18,0.00
2013-1-25,18.3,8.1,-2.4,3.5,-7.6,-14.8,73,49,26,30.31,30.05,12,3,12,0.00
2013-1-26,21.0,9.2,0.0,4.4,-1.5,-12.0,85,64,32,30.25,30.02,13,3,13,0.00
2013-1-27,28.0,13.5,7.0,6.3,0.2,-8.5,73,57,28,30.46,30.23,15,4,15,0.00
2013-1-28,22.3,14.5,6.1,18.6,8.1,-0.6,88,76,50,30.45,29.85,5,1,5,0.00
2013-1-29,35.4,26.3,19.6,31.1,22.7,15.1,96,86,73,30.02,29.87,7,1,7,0.00
2013-1-30,41.4,34.4,31.3,40.8,33.8,30.7,99,98,95,29.92,29.23,7,1,7,0.43
2013-1-31,45.7,33.9,25.7,41.8,23.1,5.6,99,68,40,29.39,28.74,20,3,20,0.57